Murdock, Nebraska
Current Conditions -  °F | °C
As of 4:55 AM on Friday 19 Dec 2014 (Local Time) from KPMV Reporting Station
Haze Haze  
Wind Chill: -4°   Ceiling: 500
Heat Index: -1°   Visibility: 3mi
Dew Point: -3°   Wind: 5mph
Humidity: 92%   Direction: 160°SSE
Pressure: 30.21"   Gusts: NA
Location:  40.93°N, 96.28°W
Report Text: KPMV 191055Z AUTO 16004KT 3SM BR OVC005 M01/M02 A3021 RMK AO2 T10141025
Loading
Personal Weather Stations






























Interactive Weather Map New forecast layout! Learn more

10-Day Weather Forecast

Advertisements
Track Severe Weather on mobile